Time;durP1;ratioP1;P1;durP2;ratioP2;P2;SDS_P1;SDS_P2;PMS_P1;PMS_P2;Temp;Humidity;BMP_temperature;BMP_pressure;BME280_temperature;BME280_humidity;BME280_pressure;Samples;Min_cycle;Max_cycle;Signal;HPM_P1;HPM_P2
2023/08/30 00:01:12;;;;;;;4.28;3.83;;;17.40;63.70;19.10;100701.00;;;;5089225;28;20194;-82
2023/08/30 00:03:39;;;;;;;4.45;3.92;;;17.40;63.80;19.10;100700.00;;;;5082454;28;20210;-82
2023/08/30 00:06:07;;;;;;;5.30;4.13;;;17.40;63.80;19.10;100680.00;;;;5084469;28;20571;-82
2023/08/30 00:08:35;;;;;;;4.32;3.67;;;17.40;63.80;19.10;100689.00;;;;5088208;28;20198;-81
2023/08/30 00:11:04;;;;;;;5.72;3.75;;;17.30;63.70;19.10;100685.00;;;;5088570;28;20190;-81
2023/08/30 00:13:32;;;;;;;4.90;3.95;;;17.30;63.70;19.00;100677.00;;;;5084550;28;20264;-82
2023/08/30 00:15:59;;;;;;;4.93;4.20;;;17.30;63.70;19.00;100675.00;;;;5069170;28;20199;-82
2023/08/30 00:18:26;;;;;;;4.18;3.58;;;17.30;63.70;19.00;100675.00;;;;5082605;28;20282;-82
2023/08/30 00:20:53;;;;;;;6.00;3.95;;;17.30;63.70;19.00;100664.00;;;;5088401;28;20568;-82
2023/08/30 00:23:20;;;;;;;5.40;3.88;;;17.30;63.70;19.00;100668.00;;;;5087660;28;20702;-82
2023/08/30 00:25:48;;;;;;;4.75;3.63;;;17.20;63.70;19.00;100666.00;;;;5069434;28;20222;-82
2023/08/30 00:28:15;;;;;;;4.90;4.20;;;17.20;63.60;19.00;100666.00;;;;5087834;28;20212;-81
2023/08/30 00:30:43;;;;;;;4.90;3.95;;;17.20;63.60;18.90;100671.00;;;;5088596;28;20190;-81
2023/08/30 00:33:10;;;;;;;4.35;3.75;;;17.20;63.60;18.90;100668.00;;;;5071749;28;20564;-81
2023/08/30 00:35:37;;;;;;;4.47;3.80;;;17.20;63.60;18.90;100662.00;;;;5086754;28;20228;-82
2023/08/30 00:38:03;;;;;;;4.28;3.58;;;17.10;63.50;18.90;100660.00;;;;5083038;28;20213;-81
2023/08/30 00:40:38;;;;;;;4.75;3.70;;;17.10;63.60;18.80;100665.00;;;;5089163;28;20256;-81
2023/08/30 00:43:07;;;;;;;5.32;4.47;;;17.10;63.70;18.90;100659.00;;;;5081278;28;20919;-81
2023/08/30 00:45:38;;;;;;;4.20;3.80;;;17.10;63.70;18.80;100663.00;;;;5086806;28;20202;-81
2023/08/30 00:48:06;;;;;;;4.70;4.13;;;17.10;63.70;18.80;100653.00;;;;5088647;28;20193;-82
2023/08/30 00:50:35;;;;;;;3.97;3.63;;;17.10;63.70;18.80;100653.00;;;;5079334;28;20337;-81
2023/08/30 00:53:05;;;;;;;5.00;4.50;;;17.10;63.70;18.80;100655.00;;;;5082171;28;20198;-81
2023/08/30 00:55:33;;;;;;;5.15;3.47;;;17.10;63.90;18.80;100654.00;;;;5087893;28;20230;-81
2023/08/30 00:58:00;;;;;;;5.15;4.18;;;17.10;63.90;18.80;100654.00;;;;5087920;28;20240;-81
2023/08/30 01:00:29;;;;;;;6.55;4.95;;;17.10;64.00;18.80;100649.00;;;;5080717;28;20230;-81
2023/08/30 01:02:56;;;;;;;4.53;4.13;;;17.10;64.10;18.90;100655.00;;;;5073579;28;20198;-81
2023/08/30 01:05:24;;;;;;;4.78;3.95;;;17.10;64.20;18.90;100638.00;;;;5075885;28;20203;-81
2023/08/30 01:07:52;;;;;;;7.20;4.68;;;17.10;64.20;18.90;100641.00;;;;5074772;28;20206;-82
2023/08/30 01:10:26;;;;;;;5.88;4.47;;;17.10;64.20;18.90;100649.00;;;;5084151;28;20571;-81
2023/08/30 01:13:08;;;;;;;5.65;4.30;;;17.20;64.40;18.90;100651.00;;;;5079779;28;20226;-82
2023/08/30 01:15:40;;;;;;;5.13;4.32;;;17.20;64.50;18.90;100648.00;;;;5087545;28;20221;-81
2023/08/30 01:18:10;;;;;;;5.80;4.30;;;17.20;65.10;19.00;100645.00;;;;5084231;28;20206;-81
2023/08/30 01:20:41;;;;;;;4.90;4.32;;;17.20;64.40;19.00;100642.00;;;;5077604;28;20194;-81
2023/08/30 01:23:17;;;;;;;4.53;3.92;;;17.20;64.40;19.00;100646.00;;;;5086691;28;20195;-81
2023/08/30 01:25:56;;;;;;;4.43;4.03;;;17.20;64.30;18.90;100650.00;;;;5085656;28;20225;-81
2023/08/30 01:28:29;;;;;;;4.32;3.92;;;17.30;64.40;19.00;100652.00;;;;5083167;28;20205;-81
2023/08/30 01:30:58;;;;;;;3.85;3.53;;;17.30;64.40;19.00;100647.00;;;;5089258;28;20198;-81
2023/08/30 01:33:27;;;;;;;5.13;4.25;;;17.30;64.40;19.00;100640.00;;;;5087255;28;20194;-81
2023/08/30 01:35:57;;;;;;;5.35;4.53;;;17.30;65.00;19.10;100645.00;;;;5085143;28;20254;-82
2023/08/30 01:38:27;;;;;;;6.50;4.53;;;17.40;64.40;19.10;100635.00;;;;5087637;28;20247;-82
2023/08/30 01:40:57;;;;;;;4.93;4.35;;;17.30;64.30;19.10;100637.00;;;;5079824;28;20199;-81
2023/08/30 01:43:28;;;;;;;4.75;4.00;;;17.40;64.40;19.10;100642.00;;;;5078600;28;20199;-82
2023/08/30 01:45:57;;;;;;;4.82;4.25;;;17.40;64.40;19.10;100638.00;;;;5078213;28;20735;-82
2023/08/30 01:48:27;;;;;;;5.10;4.32;;;17.40;64.30;19.10;100627.00;;;;5083499;28;20252;-82
2023/08/30 01:50:58;;;;;;;6.25;4.60;;;17.40;64.30;19.10;100629.00;;;;5088727;28;20754;-82
2023/08/30 01:53:26;;;;;;;4.57;3.92;;;17.40;64.30;19.10;100630.00;;;;5090190;28;20195;-82
2023/08/30 01:55:53;;;;;;;7.15;4.13;;;17.40;64.30;19.20;100627.00;;;;5091824;28;20648;-82
2023/08/30 01:58:21;;;;;;;4.97;4.25;;;17.40;64.30;19.20;100618.00;;;;5090487;28;20892;-82
2023/08/30 02:00:49;;;;;;;4.75;4.00;;;17.40;64.20;19.10;100615.00;;;;5090224;28;20218;-81
2023/08/30 02:03:16;;;;;;;5.60;4.85;;;17.50;64.40;19.20;100626.00;;;;5080314;28;20202;-81
2023/08/30 02:06:01;;;;;;;5.18;4.10;;;17.50;64.40;19.10;100617.00;;;;5083398;28;20195;-82
2023/08/30 02:08:38;;;;;;;5.32;4.55;;;17.50;64.40;19.10;100627.00;;;;5089911;28;20607;-81
2023/08/30 02:11:14;;;;;;;4.82;4.10;;;17.50;64.30;19.20;100625.00;;;;5090640;28;20193;-81
2023/08/30 02:13:45;;;;;;;4.93;4.40;;;17.50;64.40;19.20;100622.00;;;;5090780;28;20217;-81
2023/08/30 02:16:15;;;;;;;4.90;4.35;;;17.50;64.40;19.20;100617.00;;;;5091108;28;20229;-82
2023/08/30 02:18:42;;;;;;;6.63;4.47;;;17.50;64.40;19.30;100622.00;;;;5090720;28;20201;-82
2023/08/30 02:21:09;;;;;;;5.63;4.53;;;17.60;64.40;19.30;100619.00;;;;5072814;28;20595;-82
2023/08/30 02:23:36;;;;;;;5.97;4.50;;;17.60;64.50;19.30;100608.00;;;;5090055;28;20202;-82
2023/08/30 02:26:04;;;;;;;4.88;4.32;;;17.60;64.50;19.30;100611.00;;;;5089485;28;20202;-82
2023/08/30 02:28:31;;;;;;;6.57;4.78;;;17.60;64.50;19.30;100612.00;;;;5089992;28;20194;-81
2023/08/30 02:30:58;;;;;;;5.93;4.35;;;17.60;64.50;19.40;100608.00;;;;5087914;28;20189;-82
2023/08/30 02:33:26;;;;;;;6.32;4.90;;;17.60;64.40;19.30;100607.00;;;;5089787;28;20212;-81
2023/08/30 02:35:54;;;;;;;5.50;4.85;;;17.60;64.40;19.40;100613.00;;;;5088703;28;20222;-82
2023/08/30 02:38:21;;;;;;;6.10;4.80;;;17.60;64.50;19.40;100606.00;;;;5089496;28;20202;-82
2023/08/30 02:40:48;;;;;;;6.60;5.13;;;17.60;64.50;19.40;100600.00;;;;5089630;28;20190;-81
2023/08/30 02:43:15;;;;;;;6.32;4.53;;;17.70;64.50;19.40;100598.00;;;;5089272;28;20240;-82
2023/08/30 02:45:42;;;;;;;7.80;5.32;;;17.60;64.40;19.40;100593.00;;;;5090008;28;20205;-82
2023/08/30 02:48:09;;;;;;;5.30;4.53;;;17.60;64.50;19.40;100587.00;;;;5088641;28;20205;-82
2023/08/30 02:50:37;;;;;;;6.25;4.97;;;17.60;64.50;19.40;100597.00;;;;5088492;28;20241;-82
2023/08/30 02:53:08;;;;;;;6.75;5.28;;;17.70;64.50;19.40;100592.00;;;;5089235;28;20193;-82
2023/08/30 02:55:35;;;;;;;6.18;4.88;;;17.70;64.50;19.40;100582.00;;;;5071540;28;20226;-81
2023/08/30 02:58:02;;;;;;;7.15;5.07;;;17.70;64.50;19.40;100581.00;;;;5088619;28;20190;-82
2023/08/30 03:00:29;;;;;;;6.32;5.03;;;17.70;64.50;19.40;100575.00;;;;5080823;28;20222;-81
2023/08/30 03:02:56;;;;;;;6.60;5.70;;;17.70;64.50;19.40;100572.00;;;;5088942;28;20205;-81
2023/08/30 03:05:23;;;;;;;6.45;5.72;;;17.70;64.40;19.40;100565.00;;;;5081907;28;20206;-81
2023/08/30 03:07:52;;;;;;;6.03;5.00;;;17.70;64.50;19.40;100560.00;;;;5089272;28;20202;-81
2023/08/30 03:10:20;;;;;;;6.40;5.50;;;17.70;64.40;19.40;100564.00;;;;5082859;28;20199;-82
2023/08/30 03:12:46;;;;;;;8.90;5.80;;;17.70;64.40;19.40;100560.00;;;;5076382;28;20540;-81
2023/08/30 03:15:13;;;;;;;7.25;5.47;;;17.70;64.30;19.40;100563.00;;;;5088060;28;20695;-82
2023/08/30 03:17:40;;;;;;;7.07;5.70;;;17.70;64.20;19.40;100562.00;;;;5078153;28;20195;-81
2023/08/30 03:20:08;;;;;;;7.10;5.57;;;17.60;64.20;19.30;100554.00;;;;5083969;28;20210;-81
2023/08/30 03:22:35;;;;;;;10.40;6.43;;;17.60;64.10;19.30;100561.00;;;;5088823;28;20286;-82
2023/08/30 03:25:05;;;;;;;8.68;6.53;;;17.60;64.10;19.30;100549.00;;;;5087790;28;20198;-82
2023/08/30 03:27:34;;;;;;;7.95;5.72;;;17.60;64.00;19.30;100543.00;;;;5078314;28;20656;-81
2023/08/30 03:30:01;;;;;;;8.80;5.88;;;17.60;64.00;19.30;100538.00;;;;5079628;28;20191;-81
2023/08/30 03:32:28;;;;;;;5.88;5.28;;;17.60;64.00;19.30;100535.00;;;;5072100;28;20202;-82
2023/08/30 03:34:54;;;;;;;6.53;5.78;;;17.50;64.00;19.30;100524.00;;;;5086228;28;20209;-81
2023/08/30 03:37:22;;;;;;;6.13;5.53;;;17.50;63.90;19.20;100526.00;;;;5088211;28;20985;-81
2023/08/30 03:39:48;;;;;;;7.15;5.78;;;17.50;63.90;19.20;100526.00;;;;5089188;28;20191;-81
2023/08/30 03:42:17;;;;;;;9.70;6.47;;;17.50;63.90;19.20;100523.00;;;;5088220;28;20194;-82
2023/08/30 03:44:44;;;;;;;6.68;5.43;;;17.40;63.90;19.10;100512.00;;;;5081144;28;20214;-81
2023/08/30 03:47:11;;;;;;;6.85;5.40;;;17.40;63.90;19.10;100510.00;;;;5068622;28;20206;-81
2023/08/30 03:49:38;;;;;;;7.75;5.90;;;17.40;63.90;19.10;100505.00;;;;5082213;28;20201;-81
2023/08/30 03:52:06;;;;;;;6.57;5.57;;;17.40;63.90;19.10;100510.00;;;;5087703;28;20309;-82
2023/08/30 03:54:33;;;;;;;6.10;5.35;;;17.40;63.90;19.00;100499.00;;;;5074845;28;20191;-81
2023/08/30 03:57:00;;;;;;;7.78;6.20;;;17.30;63.80;19.00;100499.00;;;;5088684;28;20318;-81
2023/08/30 03:59:29;;;;;;;7.97;6.28;;;17.30;63.90;19.00;100495.00;;;;5089321;28;20221;-81
2023/08/30 04:01:56;;;;;;;7.95;6.10;;;17.30;63.90;19.00;100497.00;;;;5086954;28;20204;-81
2023/08/30 04:04:23;;;;;;;7.07;5.25;;;17.20;63.90;18.90;100496.00;;;;5087475;28;21007;-82
2023/08/30 04:06:50;;;;;;;7.47;5.22;;;17.20;63.80;18.90;100488.00;;;;5087844;28;20198;-82
2023/08/30 04:09:17;;;;;;;8.75;5.38;;;17.20;63.80;18.90;100483.00;;;;5088249;28;20683;-82
2023/08/30 04:11:44;;;;;;;6.68;5.53;;;17.10;63.70;18.90;100483.00;;;;5085527;28;20201;-82
2023/08/30 04:14:11;;;;;;;7.65;6.13;;;17.10;63.70;18.80;100485.00;;;;5088099;28;20220;-82
2023/08/30 04:16:40;;;;;;;6.68;5.28;;;17.10;63.70;18.80;100480.00;;;;5087688;28;20222;-82
2023/08/30 04:19:06;;;;;;;8.15;6.13;;;17.10;63.70;18.80;100480.00;;;;5076631;28;20290;-82
2023/08/30 04:21:33;;;;;;;7.93;6.05;;;17.00;63.70;18.80;100486.00;;;;5078979;28;20194;-82
2023/08/30 04:24:00;;;;;;;7.97;5.50;;;17.00;63.80;18.70;100481.00;;;;5088449;28;20201;-82
2023/08/30 04:26:27;;;;;;;7.78;6.05;;;17.00;63.80;18.70;100488.00;;;;5087270;28;20207;-82
2023/08/30 04:28:54;;;;;;;9.57;5.65;;;17.00;63.80;18.70;100474.00;;;;5088256;28;20186;-81
2023/08/30 04:31:21;;;;;;;7.13;5.53;;;16.90;63.70;18.70;100485.00;;;;5084583;28;20202;-81
2023/08/30 04:33:52;;;;;;;7.03;5.68;;;16.90;63.70;18.60;100490.00;;;;5074387;28;20210;-82
2023/08/30 04:36:19;;;;;;;9.35;5.30;;;16.90;63.80;18.60;100482.00;;;;5084372;28;20222;-81
2023/08/30 04:38:46;;;;;;;7.78;6.10;;;16.90;64.50;18.60;100481.00;;;;5087094;28;20195;-81
2023/08/30 04:41:13;;;;;;;8.40;6.32;;;16.80;63.80;18.60;100474.00;;;;5085378;28;21161;-81
2023/08/30 04:43:40;;;;;;;7.68;5.65;;;16.80;63.80;18.50;100471.00;;;;5087528;28;20569;-81
2023/08/30 04:46:06;;;;;;;8.68;5.57;;;16.80;63.90;18.50;100473.00;;;;5082741;28;20206;-81
2023/08/30 04:48:34;;;;;;;6.60;5.38;;;16.70;63.90;18.50;100468.00;;;;5087386;28;20198;-81
2023/08/30 04:51:05;;;;;;;7.65;5.32;;;16.70;63.90;18.40;100460.00;;;;5085799;28;20236;-81
2023/08/30 04:53:32;;;;;;;6.88;5.47;;;16.70;64.60;18.40;100458.00;;;;5086075;28;20218;-82
2023/08/30 04:56:00;;;;;;;7.80;5.75;;;16.70;63.90;18.40;100461.00;;;;5087751;28;20214;-82
2023/08/30 04:58:27;;;;;;;8.77;6.53;;;16.70;63.90;18.40;100462.00;;;;5086716;28;20202;-81
2023/08/30 05:00:57;;;;;;;6.95;5.80;;;16.60;63.90;18.40;100454.00;;;;5086814;28;20218;-82
2023/08/30 05:03:24;;;;;;;7.38;5.60;;;16.60;63.90;18.40;100459.00;;;;5082427;28;20191;-81
2023/08/30 05:05:51;;;;;;;6.68;4.93;;;16.60;64.00;18.40;100456.00;;;;5080012;28;20683;-82
2023/08/30 05:08:19;;;;;;;8.18;5.43;;;16.60;64.00;18.30;100462.00;;;;5087328;28;20204;-82
2023/08/30 05:10:46;;;;;;;6.35;5.28;;;16.60;64.00;18.30;100457.00;;;;5069004;28;20206;-82
2023/08/30 05:13:17;;;;;;;7.18;5.82;;;16.50;64.00;18.30;100450.00;;;;5067844;28;20584;-82
2023/08/30 05:15:44;;;;;;;9.00;5.45;;;16.50;64.00;18.30;100440.00;;;;5085444;28;20229;-82
2023/08/30 05:18:11;;;;;;;6.70;5.38;;;16.50;64.10;18.30;100429.00;;;;5080855;28;20778;-82
2023/08/30 05:20:38;;;;;;;7.07;6.20;;;16.50;64.10;18.30;100435.00;;;;5087538;28;20290;-82
2023/08/30 05:23:05;;;;;;;8.07;5.40;;;16.50;64.20;18.30;100439.00;;;;5086743;28;20187;-82
2023/08/30 05:25:33;;;;;;;11.52;6.18;;;16.50;64.30;18.30;100437.00;;;;5077869;28;20199;-81
2023/08/30 05:28:00;;;;;;;7.05;5.75;;;16.50;64.40;18.30;100438.00;;;;5092347;28;20205;-81
2023/08/30 05:30:27;;;;;;;8.57;5.78;;;16.50;64.50;18.40;100435.00;;;;5090705;28;20199;-83
2023/08/30 05:32:54;;;;;;;7.20;5.32;;;16.50;64.60;18.40;100431.00;;;;5086123;28;20671;-83
2023/08/30 05:35:21;;;;;;;8.60;5.80;;;16.60;64.70;18.40;100433.00;;;;5082956;28;21067;-82
2023/08/30 05:37:48;;;;;;;7.85;5.28;;;16.60;64.70;18.40;100434.00;;;;5077930;28;20213;-81
2023/08/30 05:40:16;;;;;;;7.13;5.70;;;16.60;64.80;18.40;100431.00;;;;5080984;28;20200;-81
2023/08/30 05:42:45;;;;;;;7.45;5.95;;;16.70;64.90;18.50;100436.00;;;;5078245;28;20195;-81
2023/08/30 05:45:12;;;;;;;6.97;5.03;;;16.70;64.80;18.50;100442.00;;;;5077993;28;20271;-80
2023/08/30 05:47:39;;;;;;;8.32;5.53;;;16.70;64.80;18.50;100432.00;;;;5087859;28;20191;-80
2023/08/30 05:50:07;;;;;;;8.13;5.72;;;16.80;64.90;18.60;100429.00;;;;5083184;28;20209;-80
2023/08/30 05:52:34;;;;;;;8.13;5.75;;;16.80;64.80;18.60;100443.00;;;;5088948;28;20233;-80
2023/08/30 05:55:02;;;;;;;7.03;5.18;;;16.80;64.80;18.60;100446.00;;;;5084000;28;20209;-79
2023/08/30 05:57:33;;;;;;;6.25;5.38;;;16.90;64.90;18.70;100451.00;;;;5090092;28;20597;-81
2023/08/30 06:00:01;;;;;;;8.05;6.20;;;16.90;64.90;18.70;100452.00;;;;5085808;28;20699;-80
2023/08/30 06:02:29;;;;;;;13.68;6.25;;;16.90;64.90;18.70;100447.00;;;;5088982;28;20536;-82
2023/08/30 06:04:55;;;;;;;7.00;5.45;;;17.00;65.00;18.80;100445.00;;;;5079934;28;20846;-82
2023/08/30 06:07:22;;;;;;;9.85;5.95;;;17.00;65.00;18.80;100453.00;;;;5078809;28;20210;-83
2023/08/30 06:09:49;;;;;;;7.57;5.93;;;17.00;65.00;18.80;100447.00;;;;5085190;28;20201;-82
2023/08/30 06:12:16;;;;;;;8.52;5.43;;;17.00;65.00;18.80;100451.00;;;;5085206;28;20655;-82
2023/08/30 06:14:49;;;;;;;6.45;5.22;;;17.10;65.00;18.90;100448.00;;;;5089209;28;20209;-82
2023/08/30 06:17:18;;;;;;;7.72;5.55;;;17.10;65.10;18.90;100439.00;;;;5089951;28;20218;-82
2023/08/30 06:19:46;;;;;;;7.68;5.28;;;17.20;65.20;18.90;100433.00;;;;5084965;28;20202;-83
2023/08/30 06:22:13;;;;;;;6.30;5.18;;;17.20;65.20;19.00;100434.00;;;;5089449;28;20201;-82
2023/08/30 06:24:41;;;;;;;8.02;5.43;;;17.20;65.20;19.00;100425.00;;;;5090150;28;20242;-83
2023/08/30 06:27:08;;;;;;;7.25;5.68;;;17.20;65.10;19.00;100422.00;;;;5089989;28;20202;-82
2023/08/30 06:29:35;;;;;;;6.28;5.43;;;17.30;65.10;19.10;100417.00;;;;5082674;28;20210;-82
2023/08/30 06:32:02;;;;;;;6.93;5.57;;;17.30;65.10;19.10;100418.00;;;;5085646;28;20203;-82
2023/08/30 06:34:30;;;;;;;7.28;5.43;;;17.40;65.10;19.10;100418.00;;;;5087956;28;20655;-81
2023/08/30 06:36:57;;;;;;;8.18;5.60;;;17.40;65.10;19.10;100420.00;;;;5088861;28;20620;-82
2023/08/30 06:39:24;;;;;;;7.78;5.45;;;17.40;65.10;19.20;100429.00;;;;5086916;28;20569;-81
2023/08/30 06:41:51;;;;;;;5.97;4.93;;;17.50;65.20;19.10;100430.00;;;;5087944;28;20234;-82
2023/08/30 06:44:18;;;;;;;6.30;5.35;;;17.50;65.10;19.10;100428.00;;;;5089485;28;20193;-83
2023/08/30 06:46:45;;;;;;;6.95;4.75;;;17.50;65.20;19.20;100434.00;;;;5089579;28;20206;-83
2023/08/30 06:49:12;;;;;;;6.00;4.60;;;17.50;65.20;19.10;100417.00;;;;5081635;28;20201;-82
2023/08/30 06:51:40;;;;;;;5.40;4.85;;;17.50;65.30;19.10;100414.00;;;;5086676;28;20252;-82
2023/08/30 06:54:07;;;;;;;6.82;5.15;;;17.50;65.40;19.10;100419.00;;;;5089330;28;20191;-82
2023/08/30 06:56:34;;;;;;;5.90;4.53;;;17.50;65.40;19.10;100407.00;;;;5087162;28;21101;-84
2023/08/30 06:59:03;;;;;;;7.78;5.05;;;17.50;65.50;19.10;100408.00;;;;5086067;28;20323;-83
2023/08/30 07:01:29;;;;;;;7.50;5.18;;;17.50;65.60;19.10;100412.00;;;;5090509;28;20190;-83
2023/08/30 07:03:56;;;;;;;7.50;5.32;;;17.50;65.70;19.10;100401.00;;;;5085550;28;20202;-83
2023/08/30 07:06:24;;;;;;;7.70;5.35;;;17.50;65.90;19.10;100394.00;;;;5089964;28;20586;-83
2023/08/30 07:08:52;;;;;;;5.72;4.47;;;17.50;65.90;19.00;100397.00;;;;5079958;28;20618;-83
2023/08/30 07:11:19;;;;;;;7.55;4.68;;;17.50;65.90;19.10;100404.00;;;;5081795;28;20660;-83
2023/08/30 07:13:46;;;;;;;5.72;5.13;;;17.50;66.00;19.10;100395.00;;;;5086458;28;20199;-84
2023/08/30 07:16:13;;;;;;;6.10;4.18;;;17.50;66.20;19.10;100389.00;;;;5084025;28;20215;-84
2023/08/30 07:18:40;;;;;;;6.15;4.35;;;17.50;66.20;19.10;100389.00;;;;5079886;28;20547;-83
2023/08/30 07:21:07;;;;;;;5.90;4.28;;;17.50;66.20;19.10;100381.00;;;;5076684;28;20199;-83
2023/08/30 07:23:34;;;;;;;5.85;4.50;;;17.50;66.30;19.20;100384.00;;;;5080964;28;20225;-83
2023/08/30 07:26:03;;;;;;;5.80;4.63;;;17.50;66.40;19.20;100378.00;;;;5074990;28;20198;-83
2023/08/30 07:28:30;;;;;;;5.75;4.47;;;17.50;66.50;19.20;100379.00;;;;5076993;28;20288;-83
2023/08/30 07:31:04;;;;;;;7.30;4.57;;;17.60;66.60;19.20;100365.00;;;;5077460;28;20665;-83
2023/08/30 07:33:31;;;;;;;4.95;4.45;;;17.60;66.80;19.30;100368.00;;;;5089658;28;20228;-83
2023/08/30 07:35:58;;;;;;;4.45;3.95;;;17.60;66.70;19.30;100371.00;;;;5083738;28;20657;-83
2023/08/30 07:38:25;;;;;;;5.07;4.20;;;17.60;66.80;19.30;100363.00;;;;5069035;28;20214;-82
2023/08/30 07:40:52;;;;;;;6.68;4.57;;;17.60;66.90;19.30;100365.00;;;;5078824;28;20194;-82
2023/08/30 07:43:20;;;;;;;6.10;4.80;;;17.60;66.80;19.30;100354.00;;;;5087720;28;20678;-82
2023/08/30 07:45:48;;;;;;;6.60;4.47;;;17.70;67.00;19.30;100350.00;;;;5081967;28;20195;-82
2023/08/30 07:48:15;;;;;;;5.57;4.32;;;17.70;67.00;19.40;100349.00;;;;5081600;28;20198;-83
2023/08/30 07:50:42;;;;;;;5.10;3.88;;;17.70;67.00;19.40;100352.00;;;;5086499;28;20206;-82
2023/08/30 07:53:10;;;;;;;6.78;4.75;;;17.70;67.00;19.40;100343.00;;;;5078485;28;20222;-83
2023/08/30 07:55:37;;;;;;;5.22;4.18;;;17.70;67.00;19.40;100338.00;;;;5080424;28;20726;-82
2023/08/30 07:58:05;;;;;;;5.35;3.70;;;17.80;67.10;19.40;100331.00;;;;5079581;28;20222;-82
2023/08/30 08:00:33;;;;;;;4.40;3.33;;;17.80;67.10;19.40;100340.00;;;;5085640;28;20225;-82
2023/08/30 08:03:00;;;;;;;4.47;3.60;;;17.80;67.20;19.40;100345.00;;;;5086126;28;20202;-84
2023/08/30 08:05:27;;;;;;;4.80;3.38;;;17.80;67.20;19.50;100343.00;;;;5081932;28;20202;-83
2023/08/30 08:07:54;;;;;;;6.57;3.38;;;17.80;67.30;19.50;100332.00;;;;5088353;28;20281;-82
2023/08/30 08:10:22;;;;;;;4.35;3.50;;;17.80;67.20;19.50;100332.00;;;;5086811;28;20197;-83
2023/08/30 08:12:49;;;;;;;4.95;3.53;;;17.80;67.30;19.50;100324.00;;;;5078043;28;20672;-84
2023/08/30 08:15:16;;;;;;;5.97;3.30;;;17.90;67.40;19.60;100321.00;;;;5079671;28;20191;-81
2023/08/30 08:17:44;;;;;;;5.40;2.58;;;17.90;67.60;19.60;100313.00;;;;5077212;28;20218;-82
2023/08/30 08:20:12;;;;;;;4.88;3.20;;;17.90;67.50;19.60;100316.00;;;;5079801;28;20195;-82
2023/08/30 08:22:40;;;;;;;3.45;3.08;;;18.00;67.50;19.70;100307.00;;;;5076637;28;20264;-83
2023/08/30 08:25:09;;;;;;;4.75;3.13;;;18.00;67.50;19.70;100315.00;;;;5086435;28;20191;-84
2023/08/30 08:27:37;;;;;;;6.70;2.80;;;18.00;67.50;19.70;100314.00;;;;5076047;28;20213;-82
2023/08/30 08:30:05;;;;;;;3.13;2.50;;;18.00;67.50;19.70;100313.00;;;;5087081;28;20202;-82
2023/08/30 08:32:33;;;;;;;3.65;2.95;;;18.10;67.50;19.70;100311.00;;;;5083255;28;20205;-80
2023/08/30 08:35:02;;;;;;;3.75;2.55;;;18.10;67.50;19.70;100307.00;;;;5081232;28;20215;-80
2023/08/30 08:37:30;;;;;;;3.92;2.95;;;18.10;67.50;19.70;100311.00;;;;5079240;28;20729;-80
2023/08/30 08:39:58;;;;;;;4.05;2.85;;;18.10;67.50;19.70;100312.00;;;;5087815;28;20201;-81
2023/08/30 08:42:27;;;;;;;4.00;2.95;;;18.10;67.60;19.70;100310.00;;;;5086787;28;20675;-80
2023/08/30 08:44:57;;;;;;;4.03;3.17;;;18.10;67.60;19.80;100308.00;;;;5087667;28;20190;-81
2023/08/30 08:47:24;;;;;;;3.55;2.88;;;18.10;67.70;19.80;100304.00;;;;5087124;28;20213;-80
2023/08/30 08:49:52;;;;;;;3.20;2.72;;;18.10;67.70;19.80;100300.00;;;;5084706;28;20205;-82
2023/08/30 08:52:20;;;;;;;3.60;2.95;;;18.20;67.80;19.80;100303.00;;;;5087087;28;20222;-81
2023/08/30 08:54:48;;;;;;;3.05;2.63;;;18.20;67.80;19.90;100304.00;;;;5087276;28;20659;-81
2023/08/30 08:57:16;;;;;;;4.30;3.10;;;18.20;67.80;19.80;100303.00;;;;5086007;28;20599;-80
2023/08/30 08:59:44;;;;;;;4.72;3.67;;;18.20;67.80;19.90;100307.00;;;;5087613;28;20229;-80
2023/08/30 09:02:14;;;;;;;3.30;2.53;;;18.20;67.80;19.90;100302.00;;;;5087164;28;20651;-80
2023/08/30 09:04:42;;;;;;;3.60;3.20;;;18.30;67.90;19.90;100291.00;;;;5083219;28;20201;-79
2023/08/30 09:07:09;;;;;;;3.17;2.72;;;18.30;67.90;19.90;100295.00;;;;5084255;28;20198;-80
2023/08/30 09:09:38;;;;;;;3.92;2.88;;;18.30;68.00;19.90;100293.00;;;;5082231;28;20664;-80
2023/08/30 09:12:05;;;;;;;4.38;3.10;;;18.30;68.00;20.00;100290.00;;;;5085375;28;20786;-79
2023/08/30 09:14:32;;;;;;;3.80;3.40;;;18.30;68.00;20.00;100289.00;;;;5086415;28;20648;-79
2023/08/30 09:17:03;;;;;;;3.15;2.85;;;18.30;68.00;20.00;100296.00;;;;5085991;28;20229;-79
2023/08/30 09:19:30;;;;;;;3.58;2.88;;;18.40;68.10;20.00;100290.00;;;;5087180;28;20197;-79
2023/08/30 09:22:00;;;;;;;3.90;3.42;;;18.40;68.20;20.00;100284.00;;;;5073414;28;20251;-79
2023/08/30 09:24:39;;;;;;;4.57;3.17;;;18.40;68.30;20.00;100288.00;;;;5086935;28;20200;-78
2023/08/30 09:27:07;;;;;;;4.13;3.03;;;18.40;68.30;20.10;100287.00;;;;5082934;28;20197;-79
2023/08/30 09:29:34;;;;;;;3.40;2.92;;;18.40;68.30;20.10;100282.00;;;;5082629;28;20198;-79
2023/08/30 09:32:03;;;;;;;3.25;2.95;;;18.40;68.30;20.10;100285.00;;;;5078892;28;20202;-78
2023/08/30 09:34:30;;;;;;;3.42;3.00;;;18.50;68.50;20.20;100275.00;;;;5072436;28;20202;-79
2023/08/30 09:36:59;;;;;;;3.80;3.10;;;18.50;68.50;20.20;100283.00;;;;5079164;28;20229;-78
2023/08/30 09:39:26;;;;;;;2.95;2.65;;;18.60;68.60;20.20;100275.00;;;;5085944;28;20211;-78
2023/08/30 09:41:56;;;;;;;3.47;3.17;;;18.60;68.60;20.30;100278.00;;;;5081569;28;20199;-78
2023/08/30 09:44:24;;;;;;;4.65;3.33;;;18.70;68.80;20.30;100279.00;;;;5069201;28;20287;-78
2023/08/30 09:46:53;;;;;;;3.60;3.30;;;18.70;68.80;20.40;100271.00;;;;5082426;28;20237;-78
2023/08/30 09:49:22;;;;;;;3.38;2.92;;;18.70;69.60;20.40;100279.00;;;;5070118;28;20202;-78
2023/08/30 09:51:51;;;;;;;3.72;3.40;;;18.80;69.10;20.50;100267.00;;;;5082334;28;20230;-78
2023/08/30 09:54:23;;;;;;;3.97;3.63;;;18.80;69.30;20.60;100265.00;;;;5085198;28;20212;-79
2023/08/30 09:56:52;;;;;;;4.65;4.25;;;18.90;69.40;20.60;100267.00;;;;5084009;28;20194;-80
2023/08/30 09:59:20;;;;;;;4.63;4.00;;;19.00;69.50;20.70;100267.00;;;;5082112;28;20210;-79
2023/08/30 10:01:49;;;;;;;4.38;3.60;;;19.00;69.60;20.80;100257.00;;;;5085576;28;20195;-78
2023/08/30 10:04:16;;;;;;;5.05;4.00;;;19.10;69.80;20.90;100265.00;;;;5084185;28;20198;-79
2023/08/30 10:06:46;;;;;;;4.20;3.80;;;19.20;69.90;21.00;100261.00;;;;5085090;28;20194;-80
2023/08/30 10:09:14;;;;;;;4.57;4.18;;;19.20;69.90;21.00;100252.00;;;;5088770;28;20561;-79
2023/08/30 10:11:41;;;;;;;4.65;4.25;;;19.30;69.90;21.10;100259.00;;;;5087926;28;20200;-78
2023/08/30 10:14:08;;;;;;;4.80;4.30;;;19.40;69.80;21.20;100265.00;;;;5088916;28;20197;-78
2023/08/30 10:16:43;;;;;;;5.28;4.82;;;19.50;69.90;21.20;100269.00;;;;5088256;28;20297;-79
2023/08/30 10:19:15;;;;;;;4.70;4.15;;;19.60;70.80;21.30;100272.00;;;;5084329;28;20286;-79
2023/08/30 10:21:44;;;;;;;5.18;4.68;;;19.60;70.00;21.40;100270.00;;;;5083715;28;20198;-80
2023/08/30 10:24:17;;;;;;;4.30;3.83;;;19.80;70.10;21.40;100272.00;;;;5083992;28;20186;-79
2023/08/30 10:26:47;;;;;;;3.20;2.90;;;19.80;69.80;21.50;100273.00;;;;5091177;28;20657;-80
2023/08/30 10:29:17;;;;;;;3.88;3.55;;;19.90;69.60;21.60;100282.00;;;;5083195;28;20203;-78
2023/08/30 10:31:46;;;;;;;3.72;3.42;;;20.00;69.50;21.70;100281.00;;;;5090512;28;20958;-78
2023/08/30 10:34:16;;;;;;;5.10;4.60;;;20.10;69.30;21.70;100280.00;;;;5090344;28;20194;-79
2023/08/30 10:36:43;;;;;;;5.35;3.53;;;20.10;69.00;21.80;100288.00;;;;5089869;28;20559;-78
2023/08/30 10:39:14;;;;;;;3.97;3.67;;;20.20;68.90;21.80;100293.00;;;;5085645;28;20757;-78
2023/08/30 10:41:56;;;;;;;4.30;3.90;;;20.30;68.70;21.70;100293.00;;;;5090233;28;20206;-79
2023/08/30 10:44:23;;;;;;;3.40;3.10;;;20.30;68.20;21.90;100296.00;;;;5089916;28;20263;-78
2023/08/30 10:46:55;;;;;;;4.88;3.35;;;20.40;68.00;21.80;100288.00;;;;5082478;28;20190;-78
2023/08/30 10:49:23;;;;;;;3.85;3.55;;;20.40;67.80;21.90;100295.00;;;;5083830;28;20207;-78
2023/08/30 10:52:01;;;;;;;3.05;2.80;;;20.40;67.80;21.90;100301.00;;;;5081173;28;20306;-78